Cottonwood, Texas
Current Conditions -  °F | °C
As of 10:15 PM on Wednesday 22 Oct 2014 (Local Time) from KCFD Reporting Station
Clear Clear  
Wind Chill: 66°   Ceiling: Unl
Heat Index: 66°   Visibility: 10mi
Dew Point: 58°   Wind: 3mph
Humidity: 74%   Direction: 70°ENE
Pressure: 30.12"   Gusts: NA
Location:  30.9382°N, 96.0901°W
Report Text: KCFD 230315Z AUTO 07003KT 10SM CLR 19/14 A3012 RMK AO2 T01900143
Loading
Personal Weather Stations






























Interactive Weather Map
Tropical Storm Tracking
New forecast layout! Learn more

10-Day Weather Forecast

Advertisements
Track Severe Weather on mobile